WetterOnline ( http://www.wetteronline.de )

Wetter aktuell St. Peter-Ording

Aktuelles Wetter: St. Peter-Ording (11m)

6-stündlich | Neueste Meldungen
Ortszeit Temperatur Wetter
Di, 17.07. 20:00 20.5° C wolkenlos
Di, 17.07. 14:00 24.8° C leicht bewölkt
Di, 17.07. 8:00 20.2° C wolkenlos
Di, 17.07. 2:00 17.1° C wolkenlos
Mo, 16.07. 20:00 22.0° C wolkenlos
Mo, 16.07. 14:00 22.7° C wolkenlos
Mo, 16.07. 8:00 17.4° C wolkenlos
Mo, 16.07. 2:00 15.0° C wolkenlos
Ortszeit Temperatur Wetter
Di, 17.07. 23:00 17.8° C leicht bewölkt
Di, 17.07. 22:40 17.9° C leicht bewölkt
Di, 17.07. 22:30 18.2° C wolkenlos
Di, 17.07. 22:20 18.2° C wolkenlos
Di, 17.07. 22:10 18.3° C fast wolkenlos
Di, 17.07. 22:00 18.7° C leicht bewölkt
Di, 17.07. 21:50 18.7° C leicht bewölkt
Di, 17.07. 21:30 19.0° C wolkenlos
Di, 17.07. 21:00 19.2° C wolkenlos
Di, 17.07. 20:30 19.6° C wolkenlos
Di, 17.07. 20:00 20.5° C wolkenlos
Di, 17.07. 19:30 22.2° C leicht bewölkt
Ortszeit Relative Feuchte Sichtweite
Di, 17.07. 20:00 76% 9 km
Di, 17.07. 14:00 44% 16 km
Di, 17.07. 8:00 70% 35 km
Di, 17.07. 2:00 87% 28 km
Mo, 16.07. 20:00 66% 19 km
Mo, 16.07. 14:00 62% 9 km
Mo, 16.07. 8:00 75% 19 km
Mo, 16.07. 2:00 91% 35 km
Ortszeit Relative Feuchte Sichtweite
Di, 17.07. 23:00 90% 10 km
Di, 17.07. 22:40 89% -
Di, 17.07. 22:30 89% 10 km
Di, 17.07. 22:20 89% -
Di, 17.07. 22:10 88% -
Di, 17.07. 22:00 85% 11 km
Di, 17.07. 21:50 85% -
Di, 17.07. 21:30 83% 11 km
Di, 17.07. 21:00 83% 11 km
Di, 17.07. 20:30 81% 10 km
Di, 17.07. 20:00 76% 9 km
Di, 17.07. 19:30 70% 11 km
Ortszeit Niederschlagsmenge Niederschlagsart
Di, 17.07. 20:00 0.1 l/m2 in 12 Std. -
Di, 17.07. 14:00 0.0 l/m2 in 6 Std. -
Di, 17.07. 8:00 0.0 l/m2 in 12 Std. -
Di, 17.07. 2:00 0.0 l/m2 in 6 Std. -
Mo, 16.07. 20:00 0.0 l/m2 in 12 Std. -
Mo, 16.07. 14:00 0.1 l/m2 in 6 Std. -
Mo, 16.07. 8:00 0.0 l/m2 in 12 Std. -
Mo, 16.07. 2:00 0.0 l/m2 in 6 Std. -
Ortszeit Niederschlagsmenge Niederschlagsart
Di, 17.07. 23:00 0.0 l/m2 in 1 Std. -
Di, 17.07. 22:40 keine Meldung -
Di, 17.07. 22:30 0.0 l/m2 in 1 Std. -
Di, 17.07. 22:20 keine Meldung -
Di, 17.07. 22:10 keine Meldung -
Di, 17.07. 22:00 0.0 l/m2 in 1 Std. -
Di, 17.07. 21:50 keine Meldung -
Di, 17.07. 21:30 0.0 l/m2 in 1 Std. -
Di, 17.07. 21:00 0.0 l/m2 in 1 Std. -
Di, 17.07. 20:30 0.0 l/m2 in 1 Std. -
Di, 17.07. 20:00 0.1 l/m2 in 1 Std. -
Di, 17.07. 19:30 0.0 l/m2 in 1 Std. -
Ortszeit Stärke Spitze Richtung
km/h Bft. km/h Grad Sektor
Di, 17.07. 20:00 33 5 43 270° W
Di, 17.07. 14:00 9 2 20 260° W
Di, 17.07. 8:00 6 1 13 140° SO
Di, 17.07. 2:00 7 2 29 50° NO
Mo, 16.07. 20:00 22 4 36 350° N
Mo, 16.07. 14:00 19 3 24 290° W
Mo, 16.07. 8:00 11 2 14 100° O
Mo, 16.07. 2:00 9 2 26 60° NO
Ortszeit Stärke Spitze Richtung
km/h Bft. km/h Grad Sektor
Di, 17.07. 23:00 28 4 39 280° W
Di, 17.07. 22:40 28 4 - 280° W
Di, 17.07. 22:30 26 4 39 270° W
Di, 17.07. 22:20 26 4 - 270° W
Di, 17.07. 22:10 31 5 - 270° W
Di, 17.07. 22:00 31 5 43 270° W
Di, 17.07. 21:50 31 5 - 270° W
Di, 17.07. 21:30 32 5 43 270° W
Di, 17.07. 21:00 33 5 43 270° W
Di, 17.07. 20:30 33 5 43 270° W
Di, 17.07. 20:00 33 5 43 270° W
Di, 17.07. 19:30 25 4 36 280° W
Ortszeit Untergrenze Bedeckung Gattung
total tief tief mittel hoch
Di, 17.07. 20:00 - 0/8 0/8 - - -
Di, 17.07. 14:00 9000 m 6/8 0/8 - - -
Di, 17.07. 8:00 8100 m 0/8 0/8 - - -
Di, 17.07. 2:00 - 0/8 0/8 - - -
Mo, 16.07. 20:00 - 0/8 0/8 - - -
Mo, 16.07. 14:00 - 0/8 0/8 - - -
Mo, 16.07. 8:00 - 0/8 0/8 - - -
Mo, 16.07. 2:00 - 0/8 0/8 - - -
Ortszeit Bedeckungsgrad in Achtel und Wolkenuntergrenze
Di, 17.07. 23:00 2(210m) 3(3000m)
Di, 17.07. 22:40 1(210m) 2(3000m)
Di, 17.07. 22:30 1(210m) 2(3300m)
Di, 17.07. 22:20 keine Wolken
Di, 17.07. 22:10 1(2400m) 1(3300m)
Di, 17.07. 22:00 3(2400m) 4(3000m)
Di, 17.07. 21:50 3(2400m) 4(3000m)
Di, 17.07. 21:30 1(2400m) 2(3000m)
Di, 17.07. 21:00 keine Wolken
Di, 17.07. 20:30 keine Wolken
Di, 17.07. 20:00 keine Wolken
Di, 17.07. 19:30 3(3300m)
Ortszeit Luftdruck NN (hPa) Tendenz (hPa in 3 Std.)
Di, 17.07. 20:00 1014 + 0,6
Di, 17.07. 14:00 1014 - 0,2
Di, 17.07. 8:00 1013 + 0,2
Di, 17.07. 2:00 1014 - 0,3
Mo, 16.07. 20:00 1014 - 0,8
Mo, 16.07. 14:00 1016 - 0,4
Mo, 16.07. 8:00 1016 - 0,2
Mo, 16.07. 2:00 1018 - 0,1
Ortszeit Luftdruck NN (hPa) Tendenz (hPa in 3 Std.)
Di, 17.07. 23:00 1015 + 1,4
Di, 17.07. 22:40 1015 keine Meldung
Di, 17.07. 22:30 1015 + 1,6
Di, 17.07. 22:20 1015 keine Meldung
Di, 17.07. 22:10 1015 keine Meldung
Di, 17.07. 22:00 1015 + 1,9
Di, 17.07. 21:50 1015 keine Meldung
Di, 17.07. 21:30 1015 + 1,6
Di, 17.07. 21:00 1014 + 1,4
Di, 17.07. 20:30 1014 + 0,9
Di, 17.07. 20:00 1014 + 0,6
Di, 17.07. 19:30 1014 + 0,3
Ortszeit Schneehöhe (cm)
Di, 17.07. 20:00 -
Di, 17.07. 14:00 -
Di, 17.07. 8:00 -
Di, 17.07. 2:00 -
Mo, 16.07. 20:00 -
Mo, 16.07. 14:00 -
Mo, 16.07. 8:00 -
Mo, 16.07. 2:00 -
Ortszeit Schneehöhe (cm)
Di, 17.07. 23:00 -
Di, 17.07. 22:40 -
Di, 17.07. 22:30 -
Di, 17.07. 22:20 -
Di, 17.07. 22:10 -
Di, 17.07. 22:00 -
Di, 17.07. 21:50 -
Di, 17.07. 21:30 -
Di, 17.07. 21:00 -
Di, 17.07. 20:30 -
Di, 17.07. 20:00 -
Di, 17.07. 19:30 -
Link zu dieser Seite / Seite empfehlen

Das Wetter in ...